Terminal Aerodrome Forecast
Issued by NWS Nashville, TN

Home | Current Version | Previous Version | Text Only | Print | Product List | Glossary On
Versions: 1 2 3 4 5 6 7 8 9 10 11 12 13 14 15 16 17 18 19 20 21 22 23 24 25 26
000
FTUS44 KOHX 300902 AAC
TAFBNA
TAF AMD
KBNA 300902Z 3009/0106 00000KT P6SM OVC100
     FM301000 10005KT 6SM -SHRA BR OVC060
     FM301400 13005KT P6SM BKN050
     FM302100 16007KT 5SM -SHRA VCTS SCT025CB OVC050
     FM010000 17006KT P6SM BKN050=

USA.gov is the U.S. government's official web portal to all federal, state and local government web resources and services.